Aurora, Utah
Current Conditions -  °F | °C
As of 9:15 AM on Sunday 23 Nov 2014 (Local Time) from KDTA Reporting Station
Clear Clear  
Wind Chill: 23°   Ceiling: Unl
Heat Index: 33°   Visibility: 10mi
Dew Point: 23°   Wind: 14mph
Humidity: 69%   Direction: 340°NNW
Pressure: 30.24"   Gusts: NA
Location:  38.92°N, 111.93°W
Report Text: KDTA 231615Z AUTO 34012KT 10SM CLR 00/M05 A3024 RMK AO1 T00031048
Loading
Personal Weather Stations






























Interactive Weather Map New forecast layout! Learn more

10-Day Weather Forecast

Advertisements
Track Severe Weather on mobile